sensor_id;sensor_type;location;lat;lon;timestamp;P1;durP1;ratioP1;P2;durP2;ratioP2
48765;SDS011;65794;51.836;5.002;2023-05-10T00:00:58;71.22;;;26.63;;
48765;SDS011;65794;51.836;5.002;2023-05-10T00:03:26;73.97;;;26.27;;
48765;SDS011;65794;51.836;5.002;2023-05-10T00:05:53;55.08;;;21.88;;
48765;SDS011;65794;51.836;5.002;2023-05-10T00:08:35;73.88;;;26.23;;
48765;SDS011;65794;51.836;5.002;2023-05-10T00:11:02;63.85;;;25.67;;
48765;SDS011;65794;51.836;5.002;2023-05-10T00:13:37;60.63;;;25.27;;
48765;SDS011;65794;51.836;5.002;2023-05-10T00:16:07;77.93;;;27.77;;
48765;SDS011;65794;51.836;5.002;2023-05-10T00:18:35;61.53;;;25.30;;
48765;SDS011;65794;51.836;5.002;2023-05-10T00:21:01;61.80;;;24.88;;
48765;SDS011;65794;51.836;5.002;2023-05-10T00:23:28;56.85;;;23.45;;
48765;SDS011;65794;51.836;5.002;2023-05-10T00:26:06;64.63;;;24.02;;
48765;SDS011;65794;51.836;5.002;2023-05-10T00:28:36;60.95;;;24.45;;
48765;SDS011;65794;51.836;5.002;2023-05-10T00:31:03;62.15;;;22.77;;
48765;SDS011;65794;51.836;5.002;2023-05-10T00:33:33;58.78;;;23.75;;
48765;SDS011;65794;51.836;5.002;2023-05-10T00:36:00;58.42;;;21.90;;
48765;SDS011;65794;51.836;5.002;2023-05-10T00:38:28;57.30;;;22.77;;
48765;SDS011;65794;51.836;5.002;2023-05-10T00:41:02;51.67;;;21.17;;
48765;SDS011;65794;51.836;5.002;2023-05-10T00:43:35;55.13;;;22.45;;
48765;SDS011;65794;51.836;5.002;2023-05-10T00:46:03;45.03;;;20.75;;
48765;SDS011;65794;51.836;5.002;2023-05-10T00:48:33;48.70;;;20.40;;
48765;SDS011;65794;51.836;5.002;2023-05-10T00:51:03;47.88;;;20.48;;
48765;SDS011;65794;51.836;5.002;2023-05-10T00:53:34;54.22;;;20.00;;
48765;SDS011;65794;51.836;5.002;2023-05-10T00:56:02;50.05;;;19.45;;
48765;SDS011;65794;51.836;5.002;2023-05-10T00:58:30;47.30;;;21.40;;
48765;SDS011;65794;51.836;5.002;2023-05-10T01:00:57;47.60;;;19.77;;
48765;SDS011;65794;51.836;5.002;2023-05-10T01:03:25;46.47;;;20.67;;
48765;SDS011;65794;51.836;5.002;2023-05-10T01:05:52;44.33;;;20.27;;
48765;SDS011;65794;51.836;5.002;2023-05-10T01:08:19;53.97;;;20.98;;
48765;SDS011;65794;51.836;5.002;2023-05-10T01:10:46;44.55;;;20.30;;
48765;SDS011;65794;51.836;5.002;2023-05-10T01:13:23;45.20;;;20.95;;
48765;SDS011;65794;51.836;5.002;2023-05-10T01:15:57;45.55;;;19.85;;
48765;SDS011;65794;51.836;5.002;2023-05-10T01:18:24;47.08;;;20.08;;
48765;SDS011;65794;51.836;5.002;2023-05-10T01:20:54;48.10;;;20.45;;
48765;SDS011;65794;51.836;5.002;2023-05-10T01:26:18;48.97;;;20.13;;
48765;SDS011;65794;51.836;5.002;2023-05-10T01:28:58;48.95;;;20.42;;
48765;SDS011;65794;51.836;5.002;2023-05-10T01:34:23;46.17;;;20.25;;
48765;SDS011;65794;51.836;5.002;2023-05-10T01:36:55;54.60;;;21.55;;
48765;SDS011;65794;51.836;5.002;2023-05-10T01:39:28;55.08;;;21.67;;
48765;SDS011;65794;51.836;5.002;2023-05-10T01:42:03;56.72;;;21.77;;
48765;SDS011;65794;51.836;5.002;2023-05-10T01:49:47;61.15;;;22.85;;
48765;SDS011;65794;51.836;5.002;2023-05-10T01:52:15;62.83;;;25.33;;
48765;SDS011;65794;51.836;5.002;2023-05-10T01:55:06;56.28;;;23.20;;
48765;SDS011;65794;51.836;5.002;2023-05-10T01:57:35;50.22;;;21.42;;
48765;SDS011;65794;51.836;5.002;2023-05-10T02:00:03;60.58;;;22.77;;
48765;SDS011;65794;51.836;5.002;2023-05-10T02:02:40;55.65;;;21.73;;
48765;SDS011;65794;51.836;5.002;2023-05-10T02:05:10;49.42;;;21.83;;
48765;SDS011;65794;51.836;5.002;2023-05-10T02:07:38;50.67;;;21.42;;
48765;SDS011;65794;51.836;5.002;2023-05-10T02:10:07;58.47;;;23.08;;
48765;SDS011;65794;51.836;5.002;2023-05-10T02:12:35;59.72;;;20.48;;
48765;SDS011;65794;51.836;5.002;2023-05-10T02:15:04;60.35;;;22.60;;
48765;SDS011;65794;51.836;5.002;2023-05-10T02:17:32;61.58;;;23.52;;
48765;SDS011;65794;51.836;5.002;2023-05-10T02:20:01;49.60;;;21.35;;
48765;SDS011;65794;51.836;5.002;2023-05-10T02:22:32;51.38;;;20.13;;
48765;SDS011;65794;51.836;5.002;2023-05-10T02:24:59;60.05;;;20.83;;
48765;SDS011;65794;51.836;5.002;2023-05-10T02:27:28;55.80;;;20.48;;
48765;SDS011;65794;51.836;5.002;2023-05-10T02:29:56;56.10;;;20.63;;
48765;SDS011;65794;51.836;5.002;2023-05-10T02:32:25;63.22;;;22.17;;
48765;SDS011;65794;51.836;5.002;2023-05-10T02:34:53;67.22;;;22.58;;
48765;SDS011;65794;51.836;5.002;2023-05-10T02:37:21;58.20;;;22.15;;
48765;SDS011;65794;51.836;5.002;2023-05-10T02:39:52;53.45;;;21.27;;
48765;SDS011;65794;51.836;5.002;2023-05-10T02:42:23;66.90;;;20.73;;
48765;SDS011;65794;51.836;5.002;2023-05-10T02:44:51;57.03;;;22.48;;
48765;SDS011;65794;51.836;5.002;2023-05-10T02:47:22;58.63;;;20.50;;
48765;SDS011;65794;51.836;5.002;2023-05-10T02:49:49;56.47;;;20.70;;
48765;SDS011;65794;51.836;5.002;2023-05-10T02:52:26;60.80;;;21.13;;
48765;SDS011;65794;51.836;5.002;2023-05-10T02:54:54;55.17;;;20.80;;
48765;SDS011;65794;51.836;5.002;2023-05-10T02:57:22;58.60;;;20.83;;
48765;SDS011;65794;51.836;5.002;2023-05-10T02:59:51;57.97;;;19.60;;
48765;SDS011;65794;51.836;5.002;2023-05-10T03:02:19;60.45;;;22.77;;
48765;SDS011;65794;51.836;5.002;2023-05-10T03:04:47;50.88;;;21.90;;
48765;SDS011;65794;51.836;5.002;2023-05-10T03:07:14;65.95;;;21.63;;
48765;SDS011;65794;51.836;5.002;2023-05-10T03:09:41;60.80;;;22.08;;
48765;SDS011;65794;51.836;5.002;2023-05-10T03:12:14;63.35;;;22.45;;
48765;SDS011;65794;51.836;5.002;2023-05-10T03:14:49;64.38;;;23.70;;
48765;SDS011;65794;51.836;5.002;2023-05-10T03:17:29;57.97;;;22.45;;
48765;SDS011;65794;51.836;5.002;2023-05-10T03:19:58;62.70;;;22.15;;
48765;SDS011;65794;51.836;5.002;2023-05-10T03:22:41;72.72;;;23.17;;
48765;SDS011;65794;51.836;5.002;2023-05-10T03:25:12;60.47;;;22.63;;
48765;SDS011;65794;51.836;5.002;2023-05-10T03:27:41;63.47;;;22.33;;
48765;SDS011;65794;51.836;5.002;2023-05-10T03:30:10;57.38;;;22.92;;
48765;SDS011;65794;51.836;5.002;2023-05-10T03:32:38;68.80;;;22.67;;
48765;SDS011;65794;51.836;5.002;2023-05-10T03:35:11;69.10;;;24.08;;
48765;SDS011;65794;51.836;5.002;2023-05-10T03:37:40;59.58;;;22.30;;
48765;SDS011;65794;51.836;5.002;2023-05-10T03:40:07;67.15;;;24.30;;
48765;SDS011;65794;51.836;5.002;2023-05-10T03:42:37;55.88;;;24.73;;
48765;SDS011;65794;51.836;5.002;2023-05-10T03:45:05;68.30;;;24.63;;
48765;SDS011;65794;51.836;5.002;2023-05-10T03:47:32;71.65;;;25.27;;
48765;SDS011;65794;51.836;5.002;2023-05-10T03:49:59;59.60;;;24.90;;
48765;SDS011;65794;51.836;5.002;2023-05-10T03:52:26;64.22;;;24.13;;
48765;SDS011;65794;51.836;5.002;2023-05-10T03:54:54;64.10;;;24.95;;
48765;SDS011;65794;51.836;5.002;2023-05-10T03:57:22;56.45;;;23.15;;
48765;SDS011;65794;51.836;5.002;2023-05-10T03:59:49;64.55;;;24.00;;
48765;SDS011;65794;51.836;5.002;2023-05-10T04:02:16;60.47;;;24.13;;
48765;SDS011;65794;51.836;5.002;2023-05-10T04:04:43;66.28;;;23.17;;
48765;SDS011;65794;51.836;5.002;2023-05-10T04:07:10;69.68;;;24.40;;
48765;SDS011;65794;51.836;5.002;2023-05-10T04:09:37;59.08;;;24.17;;
48765;SDS011;65794;51.836;5.002;2023-05-10T04:12:04;60.28;;;23.77;;
48765;SDS011;65794;51.836;5.002;2023-05-10T04:14:34;57.38;;;25.15;;
48765;SDS011;65794;51.836;5.002;2023-05-10T04:17:01;63.72;;;25.10;;
48765;SDS011;65794;51.836;5.002;2023-05-10T04:19:28;73.72;;;26.58;;
48765;SDS011;65794;51.836;5.002;2023-05-10T04:21:56;71.55;;;27.40;;
48765;SDS011;65794;51.836;5.002;2023-05-10T04:24:23;65.00;;;26.20;;
48765;SDS011;65794;51.836;5.002;2023-05-10T04:26:51;73.95;;;25.58;;
48765;SDS011;65794;51.836;5.002;2023-05-10T04:29:18;68.45;;;24.73;;
48765;SDS011;65794;51.836;5.002;2023-05-10T04:31:50;59.88;;;23.92;;
48765;SDS011;65794;51.836;5.002;2023-05-10T04:34:17;71.70;;;25.13;;
48765;SDS011;65794;51.836;5.002;2023-05-10T04:36:45;63.42;;;23.33;;
48765;SDS011;65794;51.836;5.002;2023-05-10T04:39:12;58.50;;;23.88;;
48765;SDS011;65794;51.836;5.002;2023-05-10T04:41:42;59.85;;;23.20;;
48765;SDS011;65794;51.836;5.002;2023-05-10T04:44:09;62.65;;;23.15;;
48765;SDS011;65794;51.836;5.002;2023-05-10T04:46:36;65.82;;;24.55;;
48765;SDS011;65794;51.836;5.002;2023-05-10T04:49:07;77.90;;;26.00;;
48765;SDS011;65794;51.836;5.002;2023-05-10T04:51:34;68.60;;;23.98;;
48765;SDS011;65794;51.836;5.002;2023-05-10T04:54:06;71.25;;;26.40;;
48765;SDS011;65794;51.836;5.002;2023-05-10T04:56:34;89.70;;;26.25;;
48765;SDS011;65794;51.836;5.002;2023-05-10T04:59:03;80.28;;;28.80;;
48765;SDS011;65794;51.836;5.002;2023-05-10T05:01:29;89.45;;;28.05;;
48765;SDS011;65794;51.836;5.002;2023-05-10T05:03:56;77.68;;;27.05;;
48765;SDS011;65794;51.836;5.002;2023-05-10T05:06:24;64.50;;;24.80;;
48765;SDS011;65794;51.836;5.002;2023-05-10T05:08:51;71.20;;;26.27;;
48765;SDS011;65794;51.836;5.002;2023-05-10T05:11:18;88.40;;;29.15;;
48765;SDS011;65794;51.836;5.002;2023-05-10T05:13:48;84.07;;;28.42;;
48765;SDS011;65794;51.836;5.002;2023-05-10T05:16:15;83.85;;;30.17;;
48765;SDS011;65794;51.836;5.002;2023-05-10T05:18:42;88.93;;;31.00;;
48765;SDS011;65794;51.836;5.002;2023-05-10T05:21:16;96.45;;;31.75;;
48765;SDS011;65794;51.836;5.002;2023-05-10T05:23:46;81.07;;;29.98;;
48765;SDS011;65794;51.836;5.002;2023-05-10T05:26:13;78.80;;;30.67;;
48765;SDS011;65794;51.836;5.002;2023-05-10T05:28:42;75.22;;;31.48;;
48765;SDS011;65794;51.836;5.002;2023-05-10T05:31:09;87.70;;;31.02;;
48765;SDS011;65794;51.836;5.002;2023-05-10T05:33:36;75.32;;;31.60;;
48765;SDS011;65794;51.836;5.002;2023-05-10T05:36:04;92.13;;;35.10;;
48765;SDS011;65794;51.836;5.002;2023-05-10T05:38:33;85.68;;;32.35;;
48765;SDS011;65794;51.836;5.002;2023-05-10T05:41:10;82.18;;;32.58;;
48765;SDS011;65794;51.836;5.002;2023-05-10T05:43:37;76.78;;;31.10;;
48765;SDS011;65794;51.836;5.002;2023-05-10T05:46:05;85.45;;;34.10;;
48765;SDS011;65794;51.836;5.002;2023-05-10T05:48:35;95.82;;;34.33;;
48765;SDS011;65794;51.836;5.002;2023-05-10T05:51:02;77.95;;;32.97;;
48765;SDS011;65794;51.836;5.002;2023-05-10T05:53:33;85.13;;;34.10;;
48765;SDS011;65794;51.836;5.002;2023-05-10T05:56:02;88.38;;;36.05;;
48765;SDS011;65794;51.836;5.002;2023-05-10T05:58:33;96.95;;;35.83;;
48765;SDS011;65794;51.836;5.002;2023-05-10T06:01:00;89.68;;;34.97;;
48765;SDS011;65794;51.836;5.002;2023-05-10T06:03:27;107.60;;;35.88;;
48765;SDS011;65794;51.836;5.002;2023-05-10T06:05:55;104.35;;;36.80;;
48765;SDS011;65794;51.836;5.002;2023-05-10T06:08:21;86.85;;;31.60;;
48765;SDS011;65794;51.836;5.002;2023-05-10T06:10:49;76.93;;;31.20;;
48765;SDS011;65794;51.836;5.002;2023-05-10T06:13:15;92.78;;;32.47;;
48765;SDS011;65794;51.836;5.002;2023-05-10T06:15:43;77.85;;;32.47;;
48765;SDS011;65794;51.836;5.002;2023-05-10T06:18:10;66.80;;;29.15;;
48765;SDS011;65794;51.836;5.002;2023-05-10T06:20:37;66.00;;;28.42;;
48765;SDS011;65794;51.836;5.002;2023-05-10T06:23:04;66.07;;;28.98;;
48765;SDS011;65794;51.836;5.002;2023-05-10T06:25:30;71.90;;;29.27;;
48765;SDS011;65794;51.836;5.002;2023-05-10T06:27:57;69.78;;;28.30;;
48765;SDS011;65794;51.836;5.002;2023-05-10T06:30:25;64.82;;;24.85;;
48765;SDS011;65794;51.836;5.002;2023-05-10T06:32:55;75.13;;;25.85;;
48765;SDS011;65794;51.836;5.002;2023-05-10T06:35:22;76.28;;;26.30;;
48765;SDS011;65794;51.836;5.002;2023-05-10T06:37:49;83.85;;;24.70;;
48765;SDS011;65794;51.836;5.002;2023-05-10T06:40:17;76.07;;;22.90;;
48765;SDS011;65794;51.836;5.002;2023-05-10T06:42:44;78.88;;;22.55;;
48765;SDS011;65794;51.836;5.002;2023-05-10T06:45:12;86.07;;;22.38;;
48765;SDS011;65794;51.836;5.002;2023-05-10T06:47:39;75.18;;;22.70;;
48765;SDS011;65794;51.836;5.002;2023-05-10T06:50:10;71.38;;;21.85;;
48765;SDS011;65794;51.836;5.002;2023-05-10T06:52:38;79.13;;;23.25;;
48765;SDS011;65794;51.836;5.002;2023-05-10T06:55:05;63.50;;;20.70;;
48765;SDS011;65794;51.836;5.002;2023-05-10T06:57:33;62.97;;;21.00;;
48765;SDS011;65794;51.836;5.002;2023-05-10T06:59:59;42.45;;;16.23;;
48765;SDS011;65794;51.836;5.002;2023-05-10T07:02:26;39.90;;;13.93;;
48765;SDS011;65794;51.836;5.002;2023-05-10T07:04:53;37.45;;;14.68;;
48765;SDS011;65794;51.836;5.002;2023-05-10T07:07:21;40.72;;;13.93;;
48765;SDS011;65794;51.836;5.002;2023-05-10T07:09:48;33.28;;;13.95;;
48765;SDS011;65794;51.836;5.002;2023-05-10T07:12:16;29.67;;;12.27;;
48765;SDS011;65794;51.836;5.002;2023-05-10T07:14:43;27.23;;;12.52;;
48765;SDS011;65794;51.836;5.002;2023-05-10T07:17:10;30.00;;;13.10;;
48765;SDS011;65794;51.836;5.002;2023-05-10T07:19:37;28.55;;;12.55;;
48765;SDS011;65794;51.836;5.002;2023-05-10T07:22:04;28.50;;;12.38;;
48765;SDS011;65794;51.836;5.002;2023-05-10T07:24:32;29.42;;;12.45;;
48765;SDS011;65794;51.836;5.002;2023-05-10T07:26:59;28.38;;;12.07;;
48765;SDS011;65794;51.836;5.002;2023-05-10T07:29:26;28.88;;;12.70;;
48765;SDS011;65794;51.836;5.002;2023-05-10T07:31:54;27.27;;;13.18;;
48765;SDS011;65794;51.836;5.002;2023-05-10T07:34:24;27.38;;;12.48;;
48765;SDS011;65794;51.836;5.002;2023-05-10T07:36:51;20.83;;;11.70;;
48765;SDS011;65794;51.836;5.002;2023-05-10T07:39:18;33.92;;;13.95;;
48765;SDS011;65794;51.836;5.002;2023-05-10T07:41:53;26.55;;;13.93;;
48765;SDS011;65794;51.836;5.002;2023-05-10T07:44:20;27.45;;;13.90;;
48765;SDS011;65794;51.836;5.002;2023-05-10T07:46:47;33.70;;;15.40;;
48765;SDS011;65794;51.836;5.002;2023-05-10T07:49:15;28.88;;;16.45;;
48765;SDS011;65794;51.836;5.002;2023-05-10T07:51:42;36.72;;;17.38;;
48765;SDS011;65794;51.836;5.002;2023-05-10T07:54:11;40.20;;;17.40;;
48765;SDS011;65794;51.836;5.002;2023-05-10T07:56:43;39.45;;;19.23;;
48765;SDS011;65794;51.836;5.002;2023-05-10T07:59:17;36.90;;;17.90;;
48765;SDS011;65794;51.836;5.002;2023-05-10T08:01:51;36.83;;;18.55;;
48765;SDS011;65794;51.836;5.002;2023-05-10T08:04:18;38.97;;;18.95;;
48765;SDS011;65794;51.836;5.002;2023-05-10T08:06:45;41.30;;;16.88;;
48765;SDS011;65794;51.836;5.002;2023-05-10T08:09:12;40.35;;;17.48;;
48765;SDS011;65794;51.836;5.002;2023-05-10T08:11:45;44.22;;;20.23;;
48765;SDS011;65794;51.836;5.002;2023-05-10T08:14:12;39.67;;;18.38;;
48765;SDS011;65794;51.836;5.002;2023-05-10T08:16:43;35.40;;;18.50;;
48765;SDS011;65794;51.836;5.002;2023-05-10T08:19:09;39.28;;;18.95;;
48765;SDS011;65794;51.836;5.002;2023-05-10T08:21:37;43.42;;;17.90;;
48765;SDS011;65794;51.836;5.002;2023-05-10T08:24:04;39.03;;;19.08;;
48765;SDS011;65794;51.836;5.002;2023-05-10T08:26:32;47.08;;;20.77;;
48765;SDS011;65794;51.836;5.002;2023-05-10T08:29:03;42.97;;;19.15;;
48765;SDS011;65794;51.836;5.002;2023-05-10T08:31:30;38.63;;;18.52;;
48765;SDS011;65794;51.836;5.002;2023-05-10T08:34:06;44.90;;;19.30;;
48765;SDS011;65794;51.836;5.002;2023-05-10T08:36:43;36.55;;;17.58;;
48765;SDS011;65794;51.836;5.002;2023-05-10T08:39:10;36.58;;;16.98;;
48765;SDS011;65794;51.836;5.002;2023-05-10T08:41:52;33.13;;;16.10;;
48765;SDS011;65794;51.836;5.002;2023-05-10T08:44:21;38.13;;;16.55;;
48765;SDS011;65794;51.836;5.002;2023-05-10T08:46:52;34.75;;;16.35;;
48765;SDS011;65794;51.836;5.002;2023-05-10T08:49:20;32.83;;;16.27;;
48765;SDS011;65794;51.836;5.002;2023-05-10T08:51:50;29.95;;;15.10;;
48765;SDS011;65794;51.836;5.002;2023-05-10T08:54:18;26.60;;;13.63;;
48765;SDS011;65794;51.836;5.002;2023-05-10T08:56:46;32.83;;;14.15;;
48765;SDS011;65794;51.836;5.002;2023-05-10T08:59:19;31.90;;;13.32;;
48765;SDS011;65794;51.836;5.002;2023-05-10T09:01:50;24.02;;;12.88;;
48765;SDS011;65794;51.836;5.002;2023-05-10T09:04:17;33.38;;;12.25;;
48765;SDS011;65794;51.836;5.002;2023-05-10T09:06:45;28.08;;;11.65;;
48765;SDS011;65794;51.836;5.002;2023-05-10T09:09:12;14.98;;;8.35;;
48765;SDS011;65794;51.836;5.002;2023-05-10T09:11:39;18.27;;;8.85;;
48765;SDS011;65794;51.836;5.002;2023-05-10T09:14:06;15.10;;;7.30;;
48765;SDS011;65794;51.836;5.002;2023-05-10T09:16:34;13.48;;;6.70;;
48765;SDS011;65794;51.836;5.002;2023-05-10T09:19:07;16.83;;;8.20;;
48765;SDS011;65794;51.836;5.002;2023-05-10T09:21:35;15.77;;;7.80;;
48765;SDS011;65794;51.836;5.002;2023-05-10T09:24:06;15.73;;;8.90;;
48765;SDS011;65794;51.836;5.002;2023-05-10T09:26:34;20.08;;;9.43;;
48765;SDS011;65794;51.836;5.002;2023-05-10T09:29:02;20.20;;;9.88;;
48765;SDS011;65794;51.836;5.002;2023-05-10T09:31:46;21.27;;;10.38;;
48765;SDS011;65794;51.836;5.002;2023-05-10T09:34:30;18.65;;;8.57;;
48765;SDS011;65794;51.836;5.002;2023-05-10T09:36:58;16.75;;;7.40;;
48765;SDS011;65794;51.836;5.002;2023-05-10T09:39:34;14.32;;;7.38;;
48765;SDS011;65794;51.836;5.002;2023-05-10T09:42:03;19.98;;;9.02;;
48765;SDS011;65794;51.836;5.002;2023-05-10T09:44:30;14.57;;;6.40;;
48765;SDS011;65794;51.836;5.002;2023-05-10T09:46:58;12.18;;;6.32;;
48765;SDS011;65794;51.836;5.002;2023-05-10T09:49:25;14.98;;;7.00;;
48765;SDS011;65794;51.836;5.002;2023-05-10T09:51:59;14.35;;;6.75;;
48765;SDS011;65794;51.836;5.002;2023-05-10T09:54:26;12.82;;;6.25;;
48765;SDS011;65794;51.836;5.002;2023-05-10T09:56:53;20.40;;;9.30;;
48765;SDS011;65794;51.836;5.002;2023-05-10T09:59:20;16.23;;;9.18;;
48765;SDS011;65794;51.836;5.002;2023-05-10T10:01:51;19.70;;;9.32;;
48765;SDS011;65794;51.836;5.002;2023-05-10T10:04:20;17.05;;;7.45;;
48765;SDS011;65794;51.836;5.002;2023-05-10T10:06:58;14.65;;;8.25;;
48765;SDS011;65794;51.836;5.002;2023-05-10T10:09:26;15.38;;;8.00;;
48765;SDS011;65794;51.836;5.002;2023-05-10T10:11:53;16.00;;;8.60;;
48765;SDS011;65794;51.836;5.002;2023-05-10T10:14:21;15.35;;;8.52;;
48765;SDS011;65794;51.836;5.002;2023-05-10T10:16:49;15.35;;;9.15;;
48765;SDS011;65794;51.836;5.002;2023-05-10T10:19:33;18.20;;;10.30;;
48765;SDS011;65794;51.836;5.002;2023-05-10T10:22:01;18.60;;;11.05;;
48765;SDS011;65794;51.836;5.002;2023-05-10T10:24:29;16.23;;;9.85;;
48765;SDS011;65794;51.836;5.002;2023-05-10T10:32:22;12.73;;;7.55;;
48765;SDS011;65794;51.836;5.002;2023-05-10T10:34:52;14.23;;;7.45;;
48765;SDS011;65794;51.836;5.002;2023-05-10T10:37:20;12.93;;;7.53;;
48765;SDS011;65794;51.836;5.002;2023-05-10T10:39:50;15.25;;;7.70;;
48765;SDS011;65794;51.836;5.002;2023-05-10T10:43:20;13.65;;;7.45;;
48765;SDS011;65794;51.836;5.002;2023-05-10T10:45:13;13.07;;;7.95;;
48765;SDS011;65794;51.836;5.002;2023-05-10T10:47:41;13.18;;;7.25;;
48765;SDS011;65794;51.836;5.002;2023-05-10T10:50:09;11.25;;;6.82;;
48765;SDS011;65794;51.836;5.002;2023-05-10T10:52:39;14.10;;;7.25;;
48765;SDS011;65794;51.836;5.002;2023-05-10T10:55:16;11.73;;;6.90;;
48765;SDS011;65794;51.836;5.002;2023-05-10T10:57:55;15.57;;;7.72;;
48765;SDS011;65794;51.836;5.002;2023-05-10T11:00:28;12.23;;;6.47;;
48765;SDS011;65794;51.836;5.002;2023-05-10T11:08:10;10.00;;;5.95;;
48765;SDS011;65794;51.836;5.002;2023-05-10T11:10:38;10.75;;;5.97;;
48765;SDS011;65794;51.836;5.002;2023-05-10T11:13:06;11.15;;;6.47;;
48765;SDS011;65794;51.836;5.002;2023-05-10T11:15:34;10.80;;;5.60;;
48765;SDS011;65794;51.836;5.002;2023-05-10T11:18:21;11.10;;;5.45;;
48765;SDS011;65794;51.836;5.002;2023-05-10T11:20:50;11.00;;;6.50;;
48765;SDS011;65794;51.836;5.002;2023-05-10T11:23:18;11.30;;;6.93;;
48765;SDS011;65794;51.836;5.002;2023-05-10T11:25:45;11.75;;;6.97;;
48765;SDS011;65794;51.836;5.002;2023-05-10T11:28:12;12.25;;;6.63;;
48765;SDS011;65794;51.836;5.002;2023-05-10T11:30:40;12.50;;;7.28;;
48765;SDS011;65794;51.836;5.002;2023-05-10T11:33:08;11.50;;;6.88;;
48765;SDS011;65794;51.836;5.002;2023-05-10T11:35:38;12.25;;;6.57;;
48765;SDS011;65794;51.836;5.002;2023-05-10T11:38:09;12.45;;;6.28;;
48765;SDS011;65794;51.836;5.002;2023-05-10T11:40:37;13.75;;;6.55;;
48765;SDS011;65794;51.836;5.002;2023-05-10T11:43:04;12.50;;;6.82;;
48765;SDS011;65794;51.836;5.002;2023-05-10T11:45:32;12.27;;;7.25;;
48765;SDS011;65794;51.836;5.002;2023-05-10T11:47:59;13.35;;;7.50;;
48765;SDS011;65794;51.836;5.002;2023-05-10T11:50:27;15.88;;;7.82;;
48765;SDS011;65794;51.836;5.002;2023-05-10T11:52:55;15.48;;;8.55;;
48765;SDS011;65794;51.836;5.002;2023-05-10T11:55:22;15.00;;;8.57;;
48765;SDS011;65794;51.836;5.002;2023-05-10T11:57:54;17.40;;;9.63;;
48765;SDS011;65794;51.836;5.002;2023-05-10T12:00:21;17.13;;;10.02;;
48765;SDS011;65794;51.836;5.002;2023-05-10T12:02:48;18.75;;;10.25;;
48765;SDS011;65794;51.836;5.002;2023-05-10T12:05:16;18.92;;;11.45;;
48765;SDS011;65794;51.836;5.002;2023-05-10T12:07:43;20.67;;;10.95;;
48765;SDS011;65794;51.836;5.002;2023-05-10T12:10:11;23.50;;;11.77;;
48765;SDS011;65794;51.836;5.002;2023-05-10T12:12:42;24.23;;;12.93;;
48765;SDS011;65794;51.836;5.002;2023-05-10T12:15:10;23.33;;;13.55;;
48765;SDS011;65794;51.836;5.002;2023-05-10T12:17:38;26.65;;;14.50;;
48765;SDS011;65794;51.836;5.002;2023-05-10T12:20:15;23.63;;;15.00;;
48765;SDS011;65794;51.836;5.002;2023-05-10T12:22:44;25.27;;;15.70;;
48765;SDS011;65794;51.836;5.002;2023-05-10T12:25:11;28.40;;;16.52;;
48765;SDS011;65794;51.836;5.002;2023-05-10T12:27:38;25.50;;;15.90;;
48765;SDS011;65794;51.836;5.002;2023-05-10T12:30:05;23.23;;;15.85;;
48765;SDS011;65794;51.836;5.002;2023-05-10T12:32:43;24.67;;;15.82;;
48765;SDS011;65794;51.836;5.002;2023-05-10T12:35:14;27.58;;;16.55;;
48765;SDS011;65794;51.836;5.002;2023-05-10T12:37:43;25.52;;;15.27;;
48765;SDS011;65794;51.836;5.002;2023-05-10T12:40:10;20.70;;;14.32;;
48765;SDS011;65794;51.836;5.002;2023-05-10T12:42:38;22.77;;;13.40;;
48765;SDS011;65794;51.836;5.002;2023-05-10T12:45:06;24.58;;;15.52;;
48765;SDS011;65794;51.836;5.002;2023-05-10T12:47:34;23.10;;;15.40;;
48765;SDS011;65794;51.836;5.002;2023-05-10T12:50:02;23.88;;;13.73;;
48765;SDS011;65794;51.836;5.002;2023-05-10T12:52:29;22.10;;;13.90;;
48765;SDS011;65794;51.836;5.002;2023-05-10T12:54:58;23.75;;;13.82;;
48765;SDS011;65794;51.836;5.002;2023-05-10T12:57:27;25.42;;;12.48;;
48765;SDS011;65794;51.836;5.002;2023-05-10T12:59:54;14.18;;;9.90;;
48765;SDS011;65794;51.836;5.002;2023-05-10T13:02:21;19.80;;;10.60;;
48765;SDS011;65794;51.836;5.002;2023-05-10T13:04:49;16.10;;;9.15;;
48765;SDS011;65794;51.836;5.002;2023-05-10T13:07:17;13.80;;;8.40;;
48765;SDS011;65794;51.836;5.002;2023-05-10T13:09:44;17.10;;;9.50;;
48765;SDS011;65794;51.836;5.002;2023-05-10T13:12:11;12.95;;;8.70;;
48765;SDS011;65794;51.836;5.002;2023-05-10T13:14:37;18.52;;;7.97;;
48765;SDS011;65794;51.836;5.002;2023-05-10T13:17:06;16.63;;;8.95;;
48765;SDS011;65794;51.836;5.002;2023-05-10T13:19:34;16.25;;;8.70;;
48765;SDS011;65794;51.836;5.002;2023-05-10T13:22:01;14.32;;;8.98;;
48765;SDS011;65794;51.836;5.002;2023-05-10T13:24:27;14.57;;;8.95;;
48765;SDS011;65794;51.836;5.002;2023-05-10T13:26:54;14.93;;;8.00;;
48765;SDS011;65794;51.836;5.002;2023-05-10T13:29:21;12.82;;;7.80;;
48765;SDS011;65794;51.836;5.002;2023-05-10T13:31:49;13.27;;;7.65;;
48765;SDS011;65794;51.836;5.002;2023-05-10T13:34:16;17.27;;;8.13;;
48765;SDS011;65794;51.836;5.002;2023-05-10T13:36:47;12.20;;;7.13;;
48765;SDS011;65794;51.836;5.002;2023-05-10T13:39:15;13.10;;;7.80;;
48765;SDS011;65794;51.836;5.002;2023-05-10T13:41:42;14.38;;;7.95;;
48765;SDS011;65794;51.836;5.002;2023-05-10T13:44:12;15.40;;;9.68;;
48765;SDS011;65794;51.836;5.002;2023-05-10T13:46:39;25.95;;;10.70;;
48765;SDS011;65794;51.836;5.002;2023-05-10T13:49:10;17.02;;;9.80;;
48765;SDS011;65794;51.836;5.002;2023-05-10T13:51:37;18.88;;;10.32;;
48765;SDS011;65794;51.836;5.002;2023-05-10T13:54:04;17.20;;;9.88;;
48765;SDS011;65794;51.836;5.002;2023-05-10T13:56:31;15.38;;;8.93;;
48765;SDS011;65794;51.836;5.002;2023-05-10T13:58:58;14.98;;;10.10;;
48765;SDS011;65794;51.836;5.002;2023-05-10T14:01:29;16.02;;;9.52;;
48765;SDS011;65794;51.836;5.002;2023-05-10T14:03:57;16.00;;;10.15;;
48765;SDS011;65794;51.836;5.002;2023-05-10T14:06:26;18.08;;;10.30;;
48765;SDS011;65794;51.836;5.002;2023-05-10T14:08:54;20.80;;;11.13;;
48765;SDS011;65794;51.836;5.002;2023-05-10T14:11:22;17.60;;;11.68;;
48765;SDS011;65794;51.836;5.002;2023-05-10T14:13:50;21.42;;;11.50;;
48765;SDS011;65794;51.836;5.002;2023-05-10T14:16:17;19.02;;;11.70;;
48765;SDS011;65794;51.836;5.002;2023-05-10T14:18:44;17.92;;;11.20;;
48765;SDS011;65794;51.836;5.002;2023-05-10T14:21:12;15.95;;;10.45;;
48765;SDS011;65794;51.836;5.002;2023-05-10T14:23:39;24.05;;;11.75;;
48765;SDS011;65794;51.836;5.002;2023-05-10T14:26:06;17.67;;;11.30;;
48765;SDS011;65794;51.836;5.002;2023-05-10T14:28:34;18.65;;;11.13;;
48765;SDS011;65794;51.836;5.002;2023-05-10T14:31:01;21.05;;;11.93;;
48765;SDS011;65794;51.836;5.002;2023-05-10T14:33:29;21.80;;;10.55;;
48765;SDS011;65794;51.836;5.002;2023-05-10T14:35:56;24.80;;;11.77;;
48765;SDS011;65794;51.836;5.002;2023-05-10T14:38:23;17.92;;;10.70;;
48765;SDS011;65794;51.836;5.002;2023-05-10T14:40:50;15.00;;;8.68;;
48765;SDS011;65794;51.836;5.002;2023-05-10T14:43:17;14.57;;;8.20;;
48765;SDS011;65794;51.836;5.002;2023-05-10T14:45:46;16.73;;;7.78;;
48765;SDS011;65794;51.836;5.002;2023-05-10T14:48:14;14.30;;;7.25;;
48765;SDS011;65794;51.836;5.002;2023-05-10T14:50:44;13.02;;;7.25;;
48765;SDS011;65794;51.836;5.002;2023-05-10T14:53:12;14.52;;;7.28;;
48765;SDS011;65794;51.836;5.002;2023-05-10T14:55:39;16.23;;;7.85;;
48765;SDS011;65794;51.836;5.002;2023-05-10T14:58:06;13.52;;;6.95;;